sensor_id;sensor_type;location;lat;lon;timestamp;temperature;humidity
44513;DHT22;30219;50.588;9.504;2023-03-09T00:00:29;6.60;99.90
44513;DHT22;30219;50.588;9.504;2023-03-09T00:02:55;6.60;99.90
44513;DHT22;30219;50.588;9.504;2023-03-09T00:05:20;6.60;99.90
44513;DHT22;30219;50.588;9.504;2023-03-09T00:07:46;6.50;99.90
44513;DHT22;30219;50.588;9.504;2023-03-09T00:10:12;6.60;99.90
44513;DHT22;30219;50.588;9.504;2023-03-09T00:12:38;6.60;99.90
44513;DHT22;30219;50.588;9.504;2023-03-09T00:15:04;6.60;99.90
44513;DHT22;30219;50.588;9.504;2023-03-09T00:17:29;6.60;99.90
44513;DHT22;30219;50.588;9.504;2023-03-09T00:19:55;6.70;99.90
44513;DHT22;30219;50.588;9.504;2023-03-09T00:22:41;6.60;99.90
44513;DHT22;30219;50.588;9.504;2023-03-09T00:25:06;6.60;99.90
44513;DHT22;30219;50.588;9.504;2023-03-09T00:27:32;6.60;99.90
44513;DHT22;30219;50.588;9.504;2023-03-09T00:29:57;6.60;99.90
44513;DHT22;30219;50.588;9.504;2023-03-09T00:32:23;6.60;99.90
44513;DHT22;30219;50.588;9.504;2023-03-09T00:34:48;6.60;99.90
44513;DHT22;30219;50.588;9.504;2023-03-09T00:37:14;6.50;99.90
44513;DHT22;30219;50.588;9.504;2023-03-09T00:39:40;6.50;99.90
44513;DHT22;30219;50.588;9.504;2023-03-09T00:42:05;6.50;99.90
44513;DHT22;30219;50.588;9.504;2023-03-09T00:44:31;6.50;99.90
44513;DHT22;30219;50.588;9.504;2023-03-09T00:46:56;6.60;99.90
44513;DHT22;30219;50.588;9.504;2023-03-09T00:49:21;6.70;99.90
44513;DHT22;30219;50.588;9.504;2023-03-09T00:51:47;6.70;99.90
44513;DHT22;30219;50.588;9.504;2023-03-09T00:54:13;6.70;99.90
44513;DHT22;30219;50.588;9.504;2023-03-09T00:56:38;6.70;99.90
44513;DHT22;30219;50.588;9.504;2023-03-09T00:59:04;6.60;99.90
44513;DHT22;30219;50.588;9.504;2023-03-09T01:01:30;6.60;99.90
44513;DHT22;30219;50.588;9.504;2023-03-09T01:03:55;6.60;99.90
44513;DHT22;30219;50.588;9.504;2023-03-09T01:06:21;6.50;99.90
44513;DHT22;30219;50.588;9.504;2023-03-09T01:08:46;6.50;99.90
44513;DHT22;30219;50.588;9.504;2023-03-09T01:11:13;6.40;99.90
44513;DHT22;30219;50.588;9.504;2023-03-09T01:13:39;6.30;99.90
44513;DHT22;30219;50.588;9.504;2023-03-09T01:16:04;6.30;99.90
44513;DHT22;30219;50.588;9.504;2023-03-09T01:18:30;6.30;99.90
44513;DHT22;30219;50.588;9.504;2023-03-09T01:20:56;6.30;99.90
44513;DHT22;30219;50.588;9.504;2023-03-09T01:23:22;6.30;99.90
44513;DHT22;30219;50.588;9.504;2023-03-09T01:25:47;6.30;99.90
44513;DHT22;30219;50.588;9.504;2023-03-09T01:28:13;6.30;99.90
44513;DHT22;30219;50.588;9.504;2023-03-09T01:30:38;6.30;99.90
44513;DHT22;30219;50.588;9.504;2023-03-09T01:33:03;6.30;99.90
44513;DHT22;30219;50.588;9.504;2023-03-09T01:35:29;6.30;99.90
44513;DHT22;30219;50.588;9.504;2023-03-09T01:37:54;6.20;99.90
44513;DHT22;30219;50.588;9.504;2023-03-09T01:40:21;6.10;99.90
44513;DHT22;30219;50.588;9.504;2023-03-09T01:42:57;6.00;99.90
44513;DHT22;30219;50.588;9.504;2023-03-09T01:47:51;5.90;99.90
44513;DHT22;30219;50.588;9.504;2023-03-09T01:50:18;5.90;99.90
44513;DHT22;30219;50.588;9.504;2023-03-09T01:52:45;5.90;99.90
44513;DHT22;30219;50.588;9.504;2023-03-09T01:55:14;6.00;99.90
44513;DHT22;30219;50.588;9.504;2023-03-09T01:57:48;6.00;99.90
44513;DHT22;30219;50.588;9.504;2023-03-09T02:00:17;6.00;99.90
44513;DHT22;30219;50.588;9.504;2023-03-09T02:03:00;6.00;99.90
44513;DHT22;30219;50.588;9.504;2023-03-09T02:05:34;5.90;99.90
44513;DHT22;30219;50.588;9.504;2023-03-09T02:08:01;5.90;99.90
44513;DHT22;30219;50.588;9.504;2023-03-09T02:10:32;5.80;99.90
44513;DHT22;30219;50.588;9.504;2023-03-09T02:13:00;5.90;99.90
44513;DHT22;30219;50.588;9.504;2023-03-09T02:15:26;5.70;99.90
44513;DHT22;30219;50.588;9.504;2023-03-09T02:17:52;5.70;99.90
44513;DHT22;30219;50.588;9.504;2023-03-09T02:22:55;5.60;99.90
44513;DHT22;30219;50.588;9.504;2023-03-09T02:27:50;5.50;99.90
44513;DHT22;30219;50.588;9.504;2023-03-09T02:30:16;5.40;99.90
44513;DHT22;30219;50.588;9.504;2023-03-09T02:32:41;5.40;99.90
44513;DHT22;30219;50.588;9.504;2023-03-09T02:35:07;5.30;99.90
44513;DHT22;30219;50.588;9.504;2023-03-09T02:37:36;5.30;99.90
44513;DHT22;30219;50.588;9.504;2023-03-09T02:40:47;5.30;99.90
44513;DHT22;30219;50.588;9.504;2023-03-09T02:42:48;5.20;99.90
44513;DHT22;30219;50.588;9.504;2023-03-09T02:45:15;5.10;99.90
44513;DHT22;30219;50.588;9.504;2023-03-09T02:47:41;5.30;99.90
44513;DHT22;30219;50.588;9.504;2023-03-09T02:50:07;5.30;99.90
44513;DHT22;30219;50.588;9.504;2023-03-09T02:52:35;5.30;99.90
44513;DHT22;30219;50.588;9.504;2023-03-09T02:55:00;5.20;99.90
44513;DHT22;30219;50.588;9.504;2023-03-09T02:57:26;5.30;99.90
44513;DHT22;30219;50.588;9.504;2023-03-09T02:59:51;5.30;99.90
44513;DHT22;30219;50.588;9.504;2023-03-09T03:02:17;5.30;99.90
44513;DHT22;30219;50.588;9.504;2023-03-09T03:04:42;5.40;99.90
44513;DHT22;30219;50.588;9.504;2023-03-09T03:07:08;5.40;99.90
44513;DHT22;30219;50.588;9.504;2023-03-09T03:09:33;5.40;99.90
44513;DHT22;30219;50.588;9.504;2023-03-09T03:11:59;5.60;99.90
44513;DHT22;30219;50.588;9.504;2023-03-09T03:14:24;5.70;99.90
44513;DHT22;30219;50.588;9.504;2023-03-09T03:16:49;5.80;99.90
44513;DHT22;30219;50.588;9.504;2023-03-09T03:19:15;6.00;99.90
44513;DHT22;30219;50.588;9.504;2023-03-09T03:21:40;6.00;99.90
44513;DHT22;30219;50.588;9.504;2023-03-09T03:24:06;6.10;99.90
44513;DHT22;30219;50.588;9.504;2023-03-09T03:26:31;6.30;99.90
44513;DHT22;30219;50.588;9.504;2023-03-09T03:28:57;6.40;99.90
44513;DHT22;30219;50.588;9.504;2023-03-09T03:31:22;6.40;99.90
44513;DHT22;30219;50.588;9.504;2023-03-09T03:33:48;6.50;99.90
44513;DHT22;30219;50.588;9.504;2023-03-09T03:36:13;6.50;99.90
44513;DHT22;30219;50.588;9.504;2023-03-09T03:38:39;6.60;99.90
44513;DHT22;30219;50.588;9.504;2023-03-09T03:41:05;6.70;99.90
44513;DHT22;30219;50.588;9.504;2023-03-09T03:43:31;6.80;99.90
44513;DHT22;30219;50.588;9.504;2023-03-09T03:45:56;6.80;99.90
44513;DHT22;30219;50.588;9.504;2023-03-09T03:48:22;6.90;99.90
44513;DHT22;30219;50.588;9.504;2023-03-09T03:50:47;6.90;99.90
44513;DHT22;30219;50.588;9.504;2023-03-09T03:53:13;7.00;99.90
44513;DHT22;30219;50.588;9.504;2023-03-09T03:55:38;7.00;99.90
44513;DHT22;30219;50.588;9.504;2023-03-09T03:58:04;7.00;99.90
44513;DHT22;30219;50.588;9.504;2023-03-09T04:00:29;7.10;99.90
44513;DHT22;30219;50.588;9.504;2023-03-09T04:02:55;7.20;99.90
44513;DHT22;30219;50.588;9.504;2023-03-09T04:05:20;7.20;99.90
44513;DHT22;30219;50.588;9.504;2023-03-09T04:07:46;7.20;99.90
44513;DHT22;30219;50.588;9.504;2023-03-09T04:10:12;7.20;99.90
44513;DHT22;30219;50.588;9.504;2023-03-09T04:12:37;7.20;99.90
44513;DHT22;30219;50.588;9.504;2023-03-09T04:15:03;7.10;99.90
44513;DHT22;30219;50.588;9.504;2023-03-09T04:17:28;7.00;99.90
44513;DHT22;30219;50.588;9.504;2023-03-09T04:19:54;6.90;99.90
44513;DHT22;30219;50.588;9.504;2023-03-09T04:22:19;6.90;99.90
44513;DHT22;30219;50.588;9.504;2023-03-09T04:24:48;6.70;99.90
44513;DHT22;30219;50.588;9.504;2023-03-09T04:27:14;6.70;99.90
44513;DHT22;30219;50.588;9.504;2023-03-09T04:29:39;6.70;99.90
44513;DHT22;30219;50.588;9.504;2023-03-09T04:32:05;6.80;99.90
44513;DHT22;30219;50.588;9.504;2023-03-09T04:34:30;6.90;99.90
44513;DHT22;30219;50.588;9.504;2023-03-09T04:36:56;7.00;99.90
44513;DHT22;30219;50.588;9.504;2023-03-09T04:39:21;7.00;99.90
44513;DHT22;30219;50.588;9.504;2023-03-09T04:41:47;7.10;99.90
44513;DHT22;30219;50.588;9.504;2023-03-09T04:44:12;7.10;99.90
44513;DHT22;30219;50.588;9.504;2023-03-09T04:46:37;7.20;99.90
44513;DHT22;30219;50.588;9.504;2023-03-09T04:49:03;7.20;99.90
44513;DHT22;30219;50.588;9.504;2023-03-09T04:51:29;7.10;99.90
44513;DHT22;30219;50.588;9.504;2023-03-09T04:53:54;7.10;99.90
44513;DHT22;30219;50.588;9.504;2023-03-09T04:56:20;7.10;99.90
44513;DHT22;30219;50.588;9.504;2023-03-09T04:58:46;7.10;99.90
44513;DHT22;30219;50.588;9.504;2023-03-09T05:01:12;7.10;99.90
44513;DHT22;30219;50.588;9.504;2023-03-09T05:03:38;7.20;99.90
44513;DHT22;30219;50.588;9.504;2023-03-09T05:06:03;7.20;99.90
44513;DHT22;30219;50.588;9.504;2023-03-09T05:08:29;7.20;99.90
44513;DHT22;30219;50.588;9.504;2023-03-09T05:10:54;7.10;99.90
44513;DHT22;30219;50.588;9.504;2023-03-09T05:13:20;7.00;99.90
44513;DHT22;30219;50.588;9.504;2023-03-09T05:15:45;7.10;99.90
44513;DHT22;30219;50.588;9.504;2023-03-09T05:18:11;7.10;99.90
44513;DHT22;30219;50.588;9.504;2023-03-09T05:20:37;7.10;99.90
44513;DHT22;30219;50.588;9.504;2023-03-09T05:23:02;7.10;99.90
44513;DHT22;30219;50.588;9.504;2023-03-09T05:25:28;7.10;99.90
44513;DHT22;30219;50.588;9.504;2023-03-09T05:27:54;7.10;99.90
44513;DHT22;30219;50.588;9.504;2023-03-09T05:30:19;7.10;99.90
44513;DHT22;30219;50.588;9.504;2023-03-09T05:32:48;7.10;99.90
44513;DHT22;30219;50.588;9.504;2023-03-09T05:35:19;7.00;99.90
44513;DHT22;30219;50.588;9.504;2023-03-09T05:37:45;7.00;99.90
44513;DHT22;30219;50.588;9.504;2023-03-09T05:40:12;7.00;99.90
44513;DHT22;30219;50.588;9.504;2023-03-09T05:42:38;7.00;99.90
44513;DHT22;30219;50.588;9.504;2023-03-09T05:45:04;7.00;99.90
44513;DHT22;30219;50.588;9.504;2023-03-09T05:47:30;7.10;99.90
44513;DHT22;30219;50.588;9.504;2023-03-09T05:49:55;7.10;99.90
44513;DHT22;30219;50.588;9.504;2023-03-09T05:52:21;7.00;99.90
44513;DHT22;30219;50.588;9.504;2023-03-09T05:54:46;7.00;99.90
44513;DHT22;30219;50.588;9.504;2023-03-09T05:57:12;6.90;99.90
44513;DHT22;30219;50.588;9.504;2023-03-09T05:59:37;7.00;99.90
44513;DHT22;30219;50.588;9.504;2023-03-09T06:02:03;6.90;99.90
44513;DHT22;30219;50.588;9.504;2023-03-09T06:04:28;7.00;99.90
44513;DHT22;30219;50.588;9.504;2023-03-09T06:06:54;7.10;99.90
44513;DHT22;30219;50.588;9.504;2023-03-09T06:09:19;7.00;99.90
44513;DHT22;30219;50.588;9.504;2023-03-09T06:11:45;7.10;99.90
44513;DHT22;30219;50.588;9.504;2023-03-09T06:14:11;7.10;99.90
44513;DHT22;30219;50.588;9.504;2023-03-09T06:16:36;7.10;99.90
44513;DHT22;30219;50.588;9.504;2023-03-09T06:19:02;7.10;99.90
44513;DHT22;30219;50.588;9.504;2023-03-09T06:21:27;7.10;99.90
44513;DHT22;30219;50.588;9.504;2023-03-09T06:23:53;7.10;99.90
44513;DHT22;30219;50.588;9.504;2023-03-09T06:26:19;7.10;99.90
44513;DHT22;30219;50.588;9.504;2023-03-09T06:28:45;7.10;99.90
44513;DHT22;30219;50.588;9.504;2023-03-09T06:31:12;7.20;99.90
44513;DHT22;30219;50.588;9.504;2023-03-09T06:33:38;7.20;99.90
44513;DHT22;30219;50.588;9.504;2023-03-09T06:36:04;7.20;99.90
44513;DHT22;30219;50.588;9.504;2023-03-09T06:38:29;7.20;99.90
44513;DHT22;30219;50.588;9.504;2023-03-09T06:40:55;7.20;99.90
44513;DHT22;30219;50.588;9.504;2023-03-09T06:43:20;7.20;99.90
44513;DHT22;30219;50.588;9.504;2023-03-09T06:45:46;7.20;99.90
44513;DHT22;30219;50.588;9.504;2023-03-09T06:48:12;7.20;99.90
44513;DHT22;30219;50.588;9.504;2023-03-09T06:50:37;7.20;99.90
44513;DHT22;30219;50.588;9.504;2023-03-09T06:53:03;7.20;99.90
44513;DHT22;30219;50.588;9.504;2023-03-09T06:55:28;7.30;99.90
44513;DHT22;30219;50.588;9.504;2023-03-09T06:57:54;7.30;99.90
44513;DHT22;30219;50.588;9.504;2023-03-09T07:00:19;7.30;99.90
44513;DHT22;30219;50.588;9.504;2023-03-09T07:02:45;7.30;99.90
44513;DHT22;30219;50.588;9.504;2023-03-09T07:05:11;7.30;99.90
44513;DHT22;30219;50.588;9.504;2023-03-09T07:07:37;7.30;99.90
44513;DHT22;30219;50.588;9.504;2023-03-09T07:10:03;7.30;99.90
44513;DHT22;30219;50.588;9.504;2023-03-09T07:12:29;7.30;99.90
44513;DHT22;30219;50.588;9.504;2023-03-09T07:14:54;7.30;99.90
44513;DHT22;30219;50.588;9.504;2023-03-09T07:17:19;7.30;99.90
44513;DHT22;30219;50.588;9.504;2023-03-09T07:19:45;7.30;99.90
44513;DHT22;30219;50.588;9.504;2023-03-09T07:22:11;7.30;99.90
44513;DHT22;30219;50.588;9.504;2023-03-09T07:24:37;7.40;99.90
44513;DHT22;30219;50.588;9.504;2023-03-09T07:27:03;7.30;99.90
44513;DHT22;30219;50.588;9.504;2023-03-09T07:29:28;7.30;99.90
44513;DHT22;30219;50.588;9.504;2023-03-09T07:31:54;7.40;99.90
44513;DHT22;30219;50.588;9.504;2023-03-09T07:34:19;7.50;99.90
44513;DHT22;30219;50.588;9.504;2023-03-09T07:36:46;7.50;99.90
44513;DHT22;30219;50.588;9.504;2023-03-09T07:39:11;7.50;99.90
44513;DHT22;30219;50.588;9.504;2023-03-09T07:41:37;7.60;99.90
44513;DHT22;30219;50.588;9.504;2023-03-09T07:44:02;7.60;99.90
44513;DHT22;30219;50.588;9.504;2023-03-09T07:46:28;7.60;99.90
44513;DHT22;30219;50.588;9.504;2023-03-09T07:48:53;7.60;99.90
44513;DHT22;30219;50.588;9.504;2023-03-09T07:51:19;7.50;99.90
44513;DHT22;30219;50.588;9.504;2023-03-09T07:53:44;7.60;99.90
44513;DHT22;30219;50.588;9.504;2023-03-09T07:56:10;7.70;99.90
44513;DHT22;30219;50.588;9.504;2023-03-09T07:58:36;7.70;99.90
44513;DHT22;30219;50.588;9.504;2023-03-09T08:01:02;7.70;99.90
44513;DHT22;30219;50.588;9.504;2023-03-09T08:03:28;7.70;99.90
44513;DHT22;30219;50.588;9.504;2023-03-09T08:05:53;7.60;99.90
44513;DHT22;30219;50.588;9.504;2023-03-09T08:08:21;7.60;99.90
44513;DHT22;30219;50.588;9.504;2023-03-09T08:10:47;7.60;99.90
44513;DHT22;30219;50.588;9.504;2023-03-09T08:13:13;7.60;99.90
44513;DHT22;30219;50.588;9.504;2023-03-09T08:15:38;7.60;99.90
44513;DHT22;30219;50.588;9.504;2023-03-09T08:18:04;7.70;99.90
44513;DHT22;30219;50.588;9.504;2023-03-09T08:20:30;7.70;99.90
44513;DHT22;30219;50.588;9.504;2023-03-09T08:22:56;7.70;99.90
44513;DHT22;30219;50.588;9.504;2023-03-09T08:25:21;7.70;99.90
44513;DHT22;30219;50.588;9.504;2023-03-09T08:27:47;7.80;99.90
44513;DHT22;30219;50.588;9.504;2023-03-09T08:30:14;7.90;99.90
44513;DHT22;30219;50.588;9.504;2023-03-09T08:32:40;7.90;99.90
44513;DHT22;30219;50.588;9.504;2023-03-09T08:35:06;7.90;99.90
44513;DHT22;30219;50.588;9.504;2023-03-09T08:37:32;7.90;99.90
44513;DHT22;30219;50.588;9.504;2023-03-09T08:39:57;7.90;99.90
44513;DHT22;30219;50.588;9.504;2023-03-09T08:42:23;7.90;99.90
44513;DHT22;30219;50.588;9.504;2023-03-09T08:44:48;7.90;99.90
44513;DHT22;30219;50.588;9.504;2023-03-09T08:47:13;8.00;99.90
44513;DHT22;30219;50.588;9.504;2023-03-09T08:49:39;8.00;99.90
44513;DHT22;30219;50.588;9.504;2023-03-09T08:52:09;8.00;99.90
44513;DHT22;30219;50.588;9.504;2023-03-09T08:54:35;8.00;99.90
44513;DHT22;30219;50.588;9.504;2023-03-09T08:57:01;8.00;99.90
44513;DHT22;30219;50.588;9.504;2023-03-09T08:59:26;8.10;99.90
44513;DHT22;30219;50.588;9.504;2023-03-09T09:01:51;8.10;99.90
44513;DHT22;30219;50.588;9.504;2023-03-09T09:04:17;8.10;99.90
44513;DHT22;30219;50.588;9.504;2023-03-09T09:06:43;8.20;99.90
44513;DHT22;30219;50.588;9.504;2023-03-09T09:09:08;8.20;99.90
44513;DHT22;30219;50.588;9.504;2023-03-09T09:11:34;8.30;99.90
44513;DHT22;30219;50.588;9.504;2023-03-09T09:14:00;8.30;99.90
44513;DHT22;30219;50.588;9.504;2023-03-09T09:16:25;8.30;99.90
44513;DHT22;30219;50.588;9.504;2023-03-09T09:18:54;8.30;99.90
44513;DHT22;30219;50.588;9.504;2023-03-09T09:21:19;8.40;99.90
44513;DHT22;30219;50.588;9.504;2023-03-09T09:23:45;8.40;99.90
44513;DHT22;30219;50.588;9.504;2023-03-09T09:26:11;8.40;99.90
44513;DHT22;30219;50.588;9.504;2023-03-09T09:28:37;8.50;99.90
44513;DHT22;30219;50.588;9.504;2023-03-09T09:31:03;8.50;99.90
44513;DHT22;30219;50.588;9.504;2023-03-09T09:33:29;8.60;99.90
44513;DHT22;30219;50.588;9.504;2023-03-09T09:38:21;8.60;99.90
44513;DHT22;30219;50.588;9.504;2023-03-09T09:40:46;8.60;99.90
44513;DHT22;30219;50.588;9.504;2023-03-09T09:43:12;8.70;99.90
44513;DHT22;30219;50.588;9.504;2023-03-09T09:45:38;8.80;99.90
44513;DHT22;30219;50.588;9.504;2023-03-09T09:48:08;8.80;99.90
44513;DHT22;30219;50.588;9.504;2023-03-09T09:53:22;8.80;99.90
44513;DHT22;30219;50.588;9.504;2023-03-09T09:55:50;8.80;99.90
44513;DHT22;30219;50.588;9.504;2023-03-09T10:00:48;9.00;99.90
44513;DHT22;30219;50.588;9.504;2023-03-09T10:10:48;9.10;99.90
44513;DHT22;30219;50.588;9.504;2023-03-09T10:13:15;9.20;99.90
44513;DHT22;30219;50.588;9.504;2023-03-09T10:15:41;9.30;99.90
44513;DHT22;30219;50.588;9.504;2023-03-09T10:18:13;9.30;99.90
44513;DHT22;30219;50.588;9.504;2023-03-09T10:20:43;9.40;99.90
44513;DHT22;30219;50.588;9.504;2023-03-09T10:23:12;9.40;99.90
44513;DHT22;30219;50.588;9.504;2023-03-09T10:25:40;9.50;99.90
44513;DHT22;30219;50.588;9.504;2023-03-09T10:28:09;9.40;99.90
44513;DHT22;30219;50.588;9.504;2023-03-09T10:30:45;9.30;99.90
44513;DHT22;30219;50.588;9.504;2023-03-09T10:33:15;9.20;99.90
44513;DHT22;30219;50.588;9.504;2023-03-09T10:35:57;9.20;99.90
44513;DHT22;30219;50.588;9.504;2023-03-09T10:38:23;9.20;99.90
44513;DHT22;30219;50.588;9.504;2023-03-09T10:40:52;9.10;99.90
44513;DHT22;30219;50.588;9.504;2023-03-09T10:43:26;9.10;99.90
44513;DHT22;30219;50.588;9.504;2023-03-09T10:45:55;9.20;99.90
44513;DHT22;30219;50.588;9.504;2023-03-09T10:48:24;9.30;99.90
44513;DHT22;30219;50.588;9.504;2023-03-09T10:51:25;9.30;99.90
44513;DHT22;30219;50.588;9.504;2023-03-09T10:53:42;9.30;99.90
44513;DHT22;30219;50.588;9.504;2023-03-09T10:56:13;9.30;99.90
44513;DHT22;30219;50.588;9.504;2023-03-09T10:58:40;9.40;99.90
44513;DHT22;30219;50.588;9.504;2023-03-09T11:03:38;9.40;99.90
44513;DHT22;30219;50.588;9.504;2023-03-09T11:06:18;9.40;99.90
44513;DHT22;30219;50.588;9.504;2023-03-09T11:08:52;9.30;99.90
44513;DHT22;30219;50.588;9.504;2023-03-09T11:11:19;9.30;99.90
44513;DHT22;30219;50.588;9.504;2023-03-09T11:13:46;9.40;99.90
44513;DHT22;30219;50.588;9.504;2023-03-09T11:18:37;9.30;99.90
44513;DHT22;30219;50.588;9.504;2023-03-09T11:21:02;9.30;99.90
44513;DHT22;30219;50.588;9.504;2023-03-09T11:28:49;9.60;99.90
44513;DHT22;30219;50.588;9.504;2023-03-09T11:31:22;9.70;99.90
44513;DHT22;30219;50.588;9.504;2023-03-09T11:33:48;9.80;99.90
44513;DHT22;30219;50.588;9.504;2023-03-09T11:36:22;9.80;99.90
44513;DHT22;30219;50.588;9.504;2023-03-09T11:38:49;9.90;99.90
44513;DHT22;30219;50.588;9.504;2023-03-09T11:41:19;9.80;99.90
44513;DHT22;30219;50.588;9.504;2023-03-09T11:43:48;9.80;99.90
44513;DHT22;30219;50.588;9.504;2023-03-09T11:46:15;9.80;99.90
44513;DHT22;30219;50.588;9.504;2023-03-09T11:48:43;9.80;99.90
44513;DHT22;30219;50.588;9.504;2023-03-09T11:51:11;9.90;99.90
44513;DHT22;30219;50.588;9.504;2023-03-09T11:53:43;9.90;99.90
44513;DHT22;30219;50.588;9.504;2023-03-09T11:56:20;10.10;99.90
44513;DHT22;30219;50.588;9.504;2023-03-09T11:58:48;10.20;99.90
44513;DHT22;30219;50.588;9.504;2023-03-09T12:04:04;10.20;99.90
44513;DHT22;30219;50.588;9.504;2023-03-09T12:06:35;10.30;99.90
44513;DHT22;30219;50.588;9.504;2023-03-09T12:09:02;10.30;99.90
44513;DHT22;30219;50.588;9.504;2023-03-09T12:11:34;10.40;99.90
44513;DHT22;30219;50.588;9.504;2023-03-09T12:14:03;10.40;99.90
44513;DHT22;30219;50.588;9.504;2023-03-09T12:16:31;10.50;99.90
44513;DHT22;30219;50.588;9.504;2023-03-09T12:19:17;10.60;99.90
44513;DHT22;30219;50.588;9.504;2023-03-09T12:21:44;10.60;99.90
44513;DHT22;30219;50.588;9.504;2023-03-09T12:26:56;10.40;99.90
44513;DHT22;30219;50.588;9.504;2023-03-09T12:29:22;10.20;99.90
44513;DHT22;30219;50.588;9.504;2023-03-09T12:34:38;10.10;99.90
44513;DHT22;30219;50.588;9.504;2023-03-09T12:39:56;10.20;99.90
44513;DHT22;30219;50.588;9.504;2023-03-09T12:42:35;10.10;99.90
44513;DHT22;30219;50.588;9.504;2023-03-09T12:47:43;9.90;99.90
44513;DHT22;30219;50.588;9.504;2023-03-09T12:50:48;9.90;99.90
44513;DHT22;30219;50.588;9.504;2023-03-09T12:53:04;9.80;99.90
44513;DHT22;30219;50.588;9.504;2023-03-09T13:03:15;10.00;99.90
44513;DHT22;30219;50.588;9.504;2023-03-09T13:05:45;10.00;99.90
44513;DHT22;30219;50.588;9.504;2023-03-09T13:11:57;10.20;99.90
44513;DHT22;30219;50.588;9.504;2023-03-09T13:13:51;10.10;99.90
44513;DHT22;30219;50.588;9.504;2023-03-09T13:19:28;10.10;99.90
44513;DHT22;30219;50.588;9.504;2023-03-09T13:29:38;10.10;99.90
44513;DHT22;30219;50.588;9.504;2023-03-09T13:32:04;10.00;99.90
44513;DHT22;30219;50.588;9.504;2023-03-09T13:34:32;10.00;99.90
44513;DHT22;30219;50.588;9.504;2023-03-09T13:37:03;10.00;99.90
44513;DHT22;30219;50.588;9.504;2023-03-09T13:39:29;10.10;99.90
44513;DHT22;30219;50.588;9.504;2023-03-09T13:41:55;10.10;99.90
44513;DHT22;30219;50.588;9.504;2023-03-09T13:44:24;10.10;99.90
44513;DHT22;30219;50.588;9.504;2023-03-09T13:46:51;9.90;99.90
44513;DHT22;30219;50.588;9.504;2023-03-09T13:49:32;9.80;99.90
44513;DHT22;30219;50.588;9.504;2023-03-09T13:52:04;9.80;99.90
44513;DHT22;30219;50.588;9.504;2023-03-09T13:56:59;9.90;99.90
44513;DHT22;30219;50.588;9.504;2023-03-09T13:59:27;10.00;99.90
44513;DHT22;30219;50.588;9.504;2023-03-09T14:02:00;10.10;99.90
44513;DHT22;30219;50.588;9.504;2023-03-09T14:04:26;10.20;99.90
44513;DHT22;30219;50.588;9.504;2023-03-09T14:06:51;10.20;99.90
44513;DHT22;30219;50.588;9.504;2023-03-09T14:11:45;10.10;99.90
44513;DHT22;30219;50.588;9.504;2023-03-09T14:14:20;9.90;99.90
44513;DHT22;30219;50.588;9.504;2023-03-09T14:16:47;9.90;99.90
44513;DHT22;30219;50.588;9.504;2023-03-09T14:19:18;10.00;99.90
44513;DHT22;30219;50.588;9.504;2023-03-09T14:21:48;10.00;99.90
44513;DHT22;30219;50.588;9.504;2023-03-09T14:26:44;10.20;99.90
44513;DHT22;30219;50.588;9.504;2023-03-09T14:31:41;10.30;99.90
44513;DHT22;30219;50.588;9.504;2023-03-09T14:36:36;10.20;99.90
44513;DHT22;30219;50.588;9.504;2023-03-09T14:39:17;10.20;99.90
44513;DHT22;30219;50.588;9.504;2023-03-09T14:41:43;10.20;99.90
44513;DHT22;30219;50.588;9.504;2023-03-09T14:44:26;10.00;99.90
44513;DHT22;30219;50.588;9.504;2023-03-09T14:46:52;10.00;99.90
44513;DHT22;30219;50.588;9.504;2023-03-09T14:49:18;10.00;99.90
44513;DHT22;30219;50.588;9.504;2023-03-09T14:51:43;10.00;99.90
44513;DHT22;30219;50.588;9.504;2023-03-09T14:54:12;10.10;99.90
44513;DHT22;30219;50.588;9.504;2023-03-09T14:56:38;10.10;99.90
44513;DHT22;30219;50.588;9.504;2023-03-09T14:59:09;10.20;99.90
44513;DHT22;30219;50.588;9.504;2023-03-09T15:01:35;10.20;99.90
44513;DHT22;30219;50.588;9.504;2023-03-09T15:04:02;10.30;99.90
44513;DHT22;30219;50.588;9.504;2023-03-09T15:06:27;10.40;99.90
44513;DHT22;30219;50.588;9.504;2023-03-09T15:08:53;10.40;99.90
44513;DHT22;30219;50.588;9.504;2023-03-09T15:11:19;10.30;99.90
44513;DHT22;30219;50.588;9.504;2023-03-09T15:13:45;10.30;99.90
44513;DHT22;30219;50.588;9.504;2023-03-09T15:16:11;10.40;99.90
44513;DHT22;30219;50.588;9.504;2023-03-09T15:18:36;10.30;99.90
44513;DHT22;30219;50.588;9.504;2023-03-09T15:21:04;10.30;99.90
44513;DHT22;30219;50.588;9.504;2023-03-09T15:23:30;10.30;99.90
44513;DHT22;30219;50.588;9.504;2023-03-09T15:25:55;10.30;99.90
44513;DHT22;30219;50.588;9.504;2023-03-09T15:28:21;10.20;99.90
44513;DHT22;30219;50.588;9.504;2023-03-09T15:30:46;10.30;99.90
44513;DHT22;30219;50.588;9.504;2023-03-09T15:33:12;10.20;99.90
44513;DHT22;30219;50.588;9.504;2023-03-09T15:35:39;10.20;99.90
44513;DHT22;30219;50.588;9.504;2023-03-09T15:38:05;10.20;99.90
44513;DHT22;30219;50.588;9.504;2023-03-09T15:40:30;10.10;99.90
44513;DHT22;30219;50.588;9.504;2023-03-09T15:42:56;10.10;99.90
44513;DHT22;30219;50.588;9.504;2023-03-09T15:45:21;10.10;99.90
44513;DHT22;30219;50.588;9.504;2023-03-09T15:47:51;10.10;99.90
44513;DHT22;30219;50.588;9.504;2023-03-09T15:50:16;10.10;99.90
44513;DHT22;30219;50.588;9.504;2023-03-09T15:52:42;10.10;99.90
44513;DHT22;30219;50.588;9.504;2023-03-09T15:55:07;10.00;99.90
44513;DHT22;30219;50.588;9.504;2023-03-09T15:57:33;10.00;99.90
44513;DHT22;30219;50.588;9.504;2023-03-09T16:00:02;10.00;99.90
44513;DHT22;30219;50.588;9.504;2023-03-09T16:02:28;10.00;99.90
44513;DHT22;30219;50.588;9.504;2023-03-09T16:04:53;10.00;99.90
44513;DHT22;30219;50.588;9.504;2023-03-09T16:07:19;10.00;99.90
44513;DHT22;30219;50.588;9.504;2023-03-09T16:09:44;9.90;99.90
44513;DHT22;30219;50.588;9.504;2023-03-09T16:12:10;9.90;99.90
44513;DHT22;30219;50.588;9.504;2023-03-09T16:14:35;9.90;99.90
44513;DHT22;30219;50.588;9.504;2023-03-09T16:17:01;9.90;99.90
44513;DHT22;30219;50.588;9.504;2023-03-09T16:19:26;9.90;99.90
44513;DHT22;30219;50.588;9.504;2023-03-09T16:21:52;9.90;99.90
44513;DHT22;30219;50.588;9.504;2023-03-09T16:24:17;9.90;99.90
44513;DHT22;30219;50.588;9.504;2023-03-09T16:26:44;9.90;99.90
44513;DHT22;30219;50.588;9.504;2023-03-09T16:29:10;9.90;99.90
44513;DHT22;30219;50.588;9.504;2023-03-09T16:31:35;9.90;99.90
44513;DHT22;30219;50.588;9.504;2023-03-09T16:34:01;10.00;99.90
44513;DHT22;30219;50.588;9.504;2023-03-09T16:36:27;10.00;99.90
44513;DHT22;30219;50.588;9.504;2023-03-09T16:38:53;9.90;99.90
44513;DHT22;30219;50.588;9.504;2023-03-09T16:41:22;9.90;99.90
44513;DHT22;30219;50.588;9.504;2023-03-09T16:43:48;10.00;99.90
44513;DHT22;30219;50.588;9.504;2023-03-09T16:46:16;10.00;99.90
44513;DHT22;30219;50.588;9.504;2023-03-09T16:48:44;10.00;99.90
44513;DHT22;30219;50.588;9.504;2023-03-09T16:51:10;10.00;99.90
44513;DHT22;30219;50.588;9.504;2023-03-09T16:53:35;10.00;99.90
44513;DHT22;30219;50.588;9.504;2023-03-09T16:56:04;10.10;99.90
44513;DHT22;30219;50.588;9.504;2023-03-09T16:58:30;10.10;99.90
44513;DHT22;30219;50.588;9.504;2023-03-09T17:00:56;10.00;99.90